Flight Track Log - Related Links

Times and Time Zones

All times are in EDT time to prevent confusion due to time zone crossing. See the AWE1938 flight status page for this flight to view local times or setup timezone preferences in your user account.

Time Position Orientation Groundspeed Altitude Reporting Facility
EDT Latitude Longitude Course Direction KTS MPH feet Rate Location/Type
Sat 07:53:28 PM 26.6589 -81.7308 344° North 210 242 5,300  Level Miami Center
Sat 07:54:00 PM 26.9931 -81.7333 North  Level FlightAware
Sat 07:54:28 PM 26.7361 -81.7317 359° North 240 276 7,800  Level Miami Center
Sat 07:55:00 PM 27.1030 -81.7682 336° Northwest  Level FlightAware
Sat 07:55:28 PM 26.8175 -81.7350 358° North 269 310 10,400  Level Miami Center
Sat 07:56:00 PM 27.2136 -81.8034 347° North  Level FlightAware
Sat 07:56:28 PM 26.9133 -81.7414 357° North 309 356 12,300  Level Miami Center
Sat 07:57:00 PM 27.3262 -81.8315 347° North  Level FlightAware
Sat 07:57:28 PM 27.0153 -81.7478 357° North 342 394 14,900  Level Miami Center
Sat 07:58:00 PM 27.4241 -81.8691 344° North  Level FlightAware
Sat 07:58:28 PM 27.1167 -81.7778 345° North 367 422 17,200  Level Miami Center
Sat 07:59:28 PM 27.2247 -81.7311 21° North 364 419 19,300 1,950 Climbing Miami Center
Sat 08:00:28 PM 27.3011 -81.6269 50° Northeast 371 427 21,100 1,850 Climbing Miami Center
Sat 08:01:28 PM 27.3711 -81.5292 51° Northeast 420 483 23,000 1,700 Climbing Miami Center
Sat 08:02:28 PM 27.4478 -81.4200 52° Northeast 446 513 24,500 1,450 Climbing Miami Center
Sat 08:03:28 PM 27.5306 -81.3061 51° Northeast 458 527 25,900 1,250 Climbing Miami Center
Sat 08:04:28 PM 27.6133 -81.1922 51° Northeast 458 527 27,000 1,150 Climbing Miami Center
Sat 08:05:28 PM 27.6983 -81.0714 52° Northeast 468 539 28,200 1,250 Climbing Miami Center
Sat 08:06:28 PM 27.7872 -80.9525 50° Northeast 481 554 29,500 1,150 Climbing Miami Center
Sat 08:07:28 PM 27.8742 -80.8289 51° Northeast 486 559 30,500 1,300 Climbing Miami Center
Sat 08:08:28 PM 27.9592 -80.7050 52° Northeast 491 565 32,100 1,700 Climbing Miami Center
Sat 08:09:28 PM 28.0500 -80.5786 51° Northeast 501 577 33,900 1,650 Climbing Miami Center
Sat 08:10:28 PM 28.1431 -80.4475 51° Northeast 493 567 35,400 950 Climbing Miami Center
Sat 08:11:28 PM 28.2297 -80.3231 52° Northeast 493 567 35,800 750 Climbing Miami Center
Sat 08:12:28 PM 28.3183 -80.1961 52° Northeast 503 579 36,900 600 Climbing Miami Center
Sat 08:13:28 PM 28.3981 -80.0828 51° Northeast 503 579 37,000 50 Climbing Miami Center
Sat 08:14:28 PM 28.4864 -79.9603 51° Northeast 503 579 37,000  Level Miami Center
Sat 08:15:28 PM 28.5811 -79.8161 53° Northeast 511 588 37,000  Level Miami Center
Sat 08:16:28 PM 28.6672 -79.6908 52° Northeast 511 588 37,000 -50 Level Miami Center
Sat 08:17:28 PM 28.7531 -79.5628 53° Northeast 506 582 36,900 -50 Descending Miami Center
Sat 08:18:28 PM 28.8511 -79.4514 45° Northeast 506 582 36,900 50 Level Miami Center
Sat 08:19:28 PM 28.9833 -79.4022 18° North 484 557 37,000 50 Climbing Miami Center
Sat 08:20:28 PM 29.1178 -79.3556 17° North 488 562 37,000  Level Miami Center
Sat 08:21:28 PM 29.2478 -79.3133 16° North 488 562 37,000  Level Miami Center
Sat 08:22:28 PM 29.3822 -79.2686 16° North 488 562 37,000 -50 Level Miami Center
Sat 08:23:28 PM 29.5206 -79.2311 13° North 508 585 36,900  Descending Miami Center
Sat 08:24:28 PM 29.6506 -79.1814 18° North 497 572 37,000 50 Climbing Miami Center
Sat 08:25:28 PM 29.7847 -79.1317 18° North 497 572 37,000  Level Miami Center
Sat 08:27:56 PM 30.1097 -79.0244 16° North 490 564 37,000  Level Jacksonville Center
Sat 08:28:55 PM 30.2544 -78.9756 16° North 495 570 37,000  Level Jacksonville Center
Sat 08:29:56 PM 30.3886 -78.9314 16° North 489 563 37,000  Level Jacksonville Center
Sat 08:30:55 PM 30.5208 -78.8850 17° North 487 560 37,000  Level Jacksonville Center
Sat 08:31:56 PM 30.6531 -78.8383 17° North 487 560 37,000  Level Jacksonville Center
Sat 08:32:55 PM 30.7894 -78.7964 15° North 492 566 37,000  Level Jacksonville Center
Sat 08:33:55 PM 30.9236 -78.7494 17° North 497 572 37,000  Level Jacksonville Center
Sat 08:34:55 PM 31.0619 -78.7044 16° North 502 578 37,000  Level Jacksonville Center
Sat 08:35:55 PM 31.2003 -78.6569 16° North 507 583 37,000  Level Jacksonville Center
Sat 08:36:55 PM 31.3364 -78.6072 17° North 507 583 37,000  Level Jacksonville Center
Sat 08:37:56 PM 31.4725 -78.5619 16° North 507 583 37,000  Level Jacksonville Center
Sat 08:38:56 PM 31.6086 -78.5164 16° North 513 590 37,000  Level Jacksonville Center
Sat 08:39:55 PM 31.7489 -78.4658 17° North 508 585 37,000  Level Jacksonville Center
Sat 08:40:55 PM 31.8850 -78.4178 17° North 507 583 37,000 -50 Level Jacksonville Center
Sat 08:41:55 PM 32.0231 -78.3694 17° North 507 583 36,900 -50 Descending Jacksonville Center
Sat 08:42:55 PM 32.1614 -78.3208 17° North 507 583 36,900 50 Level Jacksonville Center
Sat 08:43:55 PM 32.2972 -78.2747 16° North 507 583 37,000 50 Climbing Jacksonville Center
Sat 08:44:55 PM 32.4372 -78.2208 18° North 512 589 37,000  Level Jacksonville Center
Sat 08:45:56 PM 32.5775 -78.1742 16° North 512 589 37,000  Level Jacksonville Center
Sat 08:46:55 PM 32.7133 -78.1253 17° North 512 589 37,000  Level Jacksonville Center
Sat 08:47:55 PM 32.8533 -78.0733 17° North 512 589 37,000  Level Jacksonville Center
Sat 08:50:03 PM 33.1386 -77.9719 17° North 505 581 37,000  Level Washington Center
Sat 08:51:03 PM 33.2814 -77.9239 16° North 512 589 37,000  Level Washington Center
Sat 08:52:03 PM 33.4219 -77.8731 17° North 517 595 37,000  Level Washington Center
Sat 08:53:03 PM 33.5647 -77.8222 17° North 522 601 37,000  Level Washington Center
Sat 08:54:03 PM 33.7056 -77.7686 18° North 527 606 37,000  Level Washington Center
Sat 08:55:03 PM 33.8483 -77.7147 17° North 527 606 37,000  Level Washington Center
Sat 08:56:03 PM 34.0058 -77.6586 16° North 527 606 37,000  Level Washington Center
Sat 08:57:03 PM 34.1508 -77.6069 16° North 533 613 37,000  Level Washington Center
Sat 08:58:03 PM 34.2956 -77.5528 17° North 538 619 37,000  Level Washington Center
Sat 08:59:03 PM 34.4361 -77.5033 16° North 533 613 37,000  Level Washington Center
Sat 09:00:03 PM 34.5789 -77.4486 18° North 533 613 37,000  Level Washington Center
Sat 09:01:03 PM 34.7156 -77.3733 24° Northeast 533 613 37,000 -100 Level Washington Center
Sat 09:02:03 PM 34.8567 -77.2956 24° Northeast 533 613 36,800 -600 Descending Washington Center
Sat 09:03:03 PM 34.9911 -77.2222 24° Northeast 538 619 35,800 -950 Descending Washington Center
Sat 09:04:03 PM 35.1256 -77.1461 25° Northeast 538 619 34,900 -950 Descending Washington Center
Sat 09:05:03 PM 35.2475 -77.0800 24° Northeast 533 613 33,900 -950 Descending Washington Center
Sat 09:06:03 PM 35.3842 -77.0061 24° Northeast 528 608 33,000 -450 Descending Washington Center
Sat 09:07:03 PM 35.5206 -76.9292 25° Northeast 528 608 33,000  Level Washington Center
Sat 09:08:03 PM 35.6550 -76.8522 25° Northeast 528 608 33,000  Level Washington Center
Sat 09:09:03 PM 35.7933 -76.7750 24° Northeast 528 608 33,000  Level Washington Center
Sat 09:10:03 PM 35.9339 -76.7003 23° Northeast 528 608 33,000  Level Washington Center
Sat 09:11:03 PM 36.0722 -76.6225 24° Northeast 533 613 33,000 -450 Level Washington Center
Sat 09:12:03 PM 36.2086 -76.5469 24° Northeast 533 613 32,100 -950 Descending Washington Center
Sat 09:13:03 PM 36.3572 -76.4611 25° Northeast 533 613 31,100 -700 Descending Washington Center
Sat 09:14:03 PM 36.4978 -76.3800 25° Northeast 538 619 30,700 -700 Descending Washington Center
Sat 09:15:03 PM 36.6381 -76.3011 24° Northeast 543 625 29,700 -1,050 Descending Washington Center
Sat 09:16:03 PM 36.7719 -76.2194 26° Northeast 543 625 28,600 -1,000 Descending Washington Center
Sat 09:17:03 PM 36.9058 -76.1425 25° Northeast 536 617 27,700 -1,000 Descending Washington Center
Sat 09:18:03 PM 37.0439 -76.0681 23° Northeast 530 610 26,600 -1,000 Descending Washington Center
Sat 09:19:03 PM 37.1692 -75.9958 25° Northeast 512 589 25,700 -800 Descending Washington Center
Sat 09:20:03 PM 37.2906 -75.9233 25° Northeast 494 568 25,000 -550 Descending Washington Center
Sat 09:21:03 PM 37.4136 -75.8506 25° Northeast 482 555 24,600 -650 Descending Washington Center
Sat 09:22:03 PM 37.5306 -75.7831 25° Northeast 476 548 23,700 -950 Descending Washington Center
Sat 09:23:03 PM 37.6475 -75.7150 25° Northeast 464 534 22,700 -1,000 Descending Washington Center
Sat 09:24:03 PM 37.7603 -75.6497 25° Northeast 454 522 21,700 -1,000 Descending Washington Center
Sat 09:25:03 PM 37.8686 -75.5811 27° Northeast 441 507 20,700 -1,000 Descending Washington Center
Sat 09:26:03 PM 37.9792 -75.5181 24° Northeast 436 502 19,700 -1,000 Descending Washington Center
Sat 09:27:03 PM 38.0875 -75.4519 26° Northeast 431 496 18,700 -850 Descending Washington Center
Sat 09:28:03 PM 38.1981 -75.3803 27° Northeast 431 496 18,000 -800 Descending Washington Center
Sat 09:29:03 PM 38.3061 -75.3114 27° Northeast 431 496 17,100 -900 Descending Washington Center
Sat 09:30:03 PM 38.4019 -75.2447 29° Northeast 431 496 16,200 -950 Descending Washington Center
Sat 09:31:03 PM 38.5186 -75.2203 North 419 482 15,200 -650 Descending Washington Center
Sat 09:32:03 PM 38.6269 -75.1958 10° North 407 468 14,900 -250 Descending Washington Center
Sat 09:33:03 PM 38.7372 -75.1631 13° North 402 463 14,700 -600 Descending Washington Center
Sat 09:34:03 PM 38.8478 -75.1411 North 402 463 13,700 -1,000 Descending Washington Center
Sat 09:35:03 PM 38.9539 -75.1139 11° North 392 451 12,700 -1,000 Descending Washington Center
Sat 09:36:03 PM 39.0603 -75.0864 11° North 392 451 11,700 -988 Descending Washington Center
Sat 09:37:47 PM 39.2206 -75.0464 11° North 315 362 10,000 -1,016 Descending FAA TRACON
Sat 09:38:07 PM 39.2525 -75.0383 11° North 303 349 9,600 -1,050 Descending FAA TRACON
Sat 09:38:27 PM 39.2778 -75.0319 11° North 299 344 9,300 -769 Descending FAA TRACON
Sat 09:38:46 PM 39.3008 -75.0267 10° North 284 327 9,100 -450 Descending FAA TRACON
Sat 09:39:07 PM 39.3294 -75.0197 11° North 274 315 9,000 -150 Descending FAA TRACON
Sat 09:39:26 PM 39.3519 -75.0142 11° North 270 311 9,000  Level FAA TRACON
Sat 09:39:47 PM 39.3800 -75.0072 11° North 268 308 9,000  Level FAA TRACON
Sat 09:40:07 PM 39.4031 -75.0011 12° North 270 311 9,000  Level FAA TRACON
Sat 09:40:27 PM 39.4261 -74.9950 12° North 272 313 9,000  Level FAA TRACON
Sat 09:40:47 PM 39.4481 -74.9900 10° North 271 312 9,000 -300 Level FAA TRACON
Sat 09:41:07 PM 39.4761 -74.9875 North 262 302 8,800 -900 Descending FAA TRACON
Sat 09:41:27 PM 39.4983 -74.9914 352° North 254 292 8,400 -1,500 Descending FAA TRACON
Sat 09:41:47 PM 39.5250 -74.9953 354° North 249 287 7,800 -1,650 Descending FAA TRACON
Sat 09:42:07 PM 39.5461 -74.9986 353° North 247 284 7,300 -1,800 Descending FAA TRACON
Sat 09:42:27 PM 39.5669 -75.0014 354° North 247 284 6,600 -1,800 Descending FAA TRACON
Sat 09:42:47 PM 39.5939 -75.0056 353° North 250 288 6,100 -900 Descending FAA TRACON
Sat 09:43:07 PM 39.6150 -75.0092 352° North 249 287 6,000 -150 Descending FAA TRACON
Sat 09:43:27 PM 39.6358 -75.0122 354° North 250 288 6,000  Level FAA TRACON
Sat 09:43:46 PM 39.6575 -75.0156 353° North 250 288 6,000 -450 Level FAA TRACON
Sat 09:44:07 PM 39.6839 -75.0192 354° North 249 287 5,700 -1,317 Descending FAA TRACON
Sat 09:44:27 PM 39.7042 -75.0225 353° North 246 283 5,100 -1,950 Descending FAA TRACON
Sat 09:44:47 PM 39.7300 -75.0272 352° North 241 277 4,400 -1,950 Descending FAA TRACON
Sat 09:45:07 PM 39.7500 -75.0306 353° North 238 274 3,800 -1,950 Descending FAA TRACON
Sat 09:45:27 PM 39.7694 -75.0375 345° North 228 262 3,100 -2,250 Descending FAA TRACON
Sat 09:45:47 PM 39.7928 -75.0475 342° North 235 270 2,300 -1,650 Descending FAA TRACON
Sat 09:46:07 PM 39.8103 -75.0544 343° North 212 244 2,000 -450 Descending FAA TRACON
Sat 09:46:27 PM 39.8267 -75.0608 343° North 196 226 2,000 -300 Level FAA TRACON
Sat 09:46:47 PM 39.8439 -75.0681 342° North 156 180 1,800 -300 Descending FAA TRACON
Sat 09:47:07 PM 39.8567 -75.0728 344° North 158 182 1,800  Level FAA TRACON
Sat 09:47:27 PM 39.8686 -75.0772 344° North 154 177 1,800  Level FAA TRACON
Sat 09:47:47 PM 39.8825 -75.0867 332° Northwest 151 174 1,800 -293 Level FAA TRACON
Sat 09:48:08 PM 39.8867 -75.1028 289° West 151 174 1,600 -450 Descending FAA TRACON
Sat 09:48:27 PM 39.8906 -75.1208 286° West 134 154 1,500 -462 Descending FAA TRACON
Sat 09:48:47 PM 39.8903 -75.1328 268° West 125 144 1,300 -450 Descending FAA TRACON
Sat 09:49:07 PM 39.8903 -75.1461 270° West 114 131 1,200 -300 Descending FAA TRACON

Login

Don't have an account? Register now (free) for customized features, flight alerts, and more!